createdAt,value
2022-12-05T00:01:32.732Z,86015.40
2022-12-05T00:04:06.297Z,86021.60
2022-12-05T00:06:37.969Z,86024.00
2022-12-05T00:09:10.856Z,86016.00
2022-12-05T00:11:43.980Z,86021.80
2022-12-05T00:14:15.017Z,86020.80
2022-12-05T00:16:46.021Z,86017.40
2022-12-05T00:19:17.417Z,86017.80
2022-12-05T00:21:47.057Z,86013.60
2022-12-05T00:24:18.553Z,86012.80
2022-12-05T00:26:47.891Z,86015.40
2022-12-05T00:29:17.059Z,86016.60
2022-12-05T00:31:46.233Z,86020.00
2022-12-05T00:34:18.594Z,86018.20
2022-12-05T00:36:47.672Z,86017.60
2022-12-05T00:39:16.825Z,86011.40
2022-12-05T00:41:46.190Z,86021.40
2022-12-05T00:44:15.596Z,86012.40
2022-12-05T00:46:45.291Z,86005.40
2022-12-05T00:49:14.805Z,86011.60
2022-12-05T00:51:45.547Z,86009.40
2022-12-05T00:54:18.367Z,86005.60
2022-12-05T00:56:48.315Z,86004.00
2022-12-05T00:59:20.775Z,86006.80
2022-12-05T01:01:53.477Z,86003.40
2022-12-05T01:04:26.354Z,86001.00
2022-12-05T01:07:00.440Z,86007.20
2022-12-05T01:09:29.518Z,86000.20
2022-12-05T01:11:58.839Z,86001.00
2022-12-05T01:14:28.783Z,86000.00
2022-12-05T01:16:58.919Z,86002.00
2022-12-05T01:19:32.419Z,86001.60
2022-12-05T01:22:01.983Z,86004.40
2022-12-05T01:24:32.240Z,85999.00
2022-12-05T01:27:01.224Z,86000.80
2022-12-05T01:29:30.635Z,86003.00
2022-12-05T01:31:59.980Z,86004.80
2022-12-05T01:34:29.395Z,85999.20
2022-12-05T01:36:58.331Z,85999.00
2022-12-05T01:39:28.221Z,85992.40
2022-12-05T01:41:57.361Z,85988.40
2022-12-05T01:44:26.332Z,85994.60
2022-12-05T01:46:57.191Z,85993.00
2022-12-05T01:49:41.298Z,85993.20
2022-12-05T01:52:19.967Z,86001.80
2022-12-05T01:54:53.679Z,86004.60
2022-12-05T01:57:27.404Z,86001.80
2022-12-05T02:00:05.922Z,86003.20
2022-12-05T02:02:35.267Z,86008.60
2022-12-05T02:05:12.275Z,86006.20
2022-12-05T02:07:44.654Z,86004.20
2022-12-05T02:10:14.536Z,86006.60
2022-12-05T02:12:46.442Z,86005.20
2022-12-05T02:15:27.181Z,86003.60
2022-12-05T02:18:19.741Z,86006.80
2022-12-05T02:21:19.283Z,86016.40
2022-12-05T02:24:17.958Z,86017.60
2022-12-05T02:27:22.894Z,86020.80
2022-12-05T02:30:13.565Z,86022.60
2022-12-05T02:33:09.469Z,86024.00
2022-12-05T02:35:59.057Z,86026.60
2022-12-05T02:38:42.244Z,86034.40
2022-12-05T02:41:42.582Z,86033.00
2022-12-05T02:44:23.285Z,86036.20
2022-12-05T02:46:55.477Z,86034.60
2022-12-05T02:49:32.142Z,86025.40
2022-12-05T02:52:05.685Z,86029.40
2022-12-05T02:54:42.915Z,86037.20
2022-12-05T02:57:15.579Z,86032.20
2022-12-05T02:59:44.852Z,86033.40
2022-12-05T03:02:35.845Z,86036.00
2022-12-05T03:05:34.034Z,86031.60
2022-12-05T03:08:07.768Z,86035.20
2022-12-05T03:10:40.564Z,86037.40
2022-12-05T03:13:35.998Z,86036.00
2022-12-05T03:16:14.222Z,86044.00
2022-12-05T03:19:01.521Z,86043.40
2022-12-05T03:21:44.937Z,86047.40
2022-12-05T03:24:17.239Z,86041.80
2022-12-05T03:27:32.479Z,86045.40
2022-12-05T03:30:10.206Z,86045.60
2022-12-05T03:32:57.109Z,86045.00
2022-12-05T03:36:04.379Z,86046.00
2022-12-05T03:38:58.191Z,86050.20
2022-12-05T03:42:19.997Z,86043.40
2022-12-05T03:44:58.150Z,86040.80
2022-12-05T03:47:58.495Z,86040.00
2022-12-05T03:50:31.884Z,86041.00
2022-12-05T03:53:21.262Z,86039.40
2022-12-05T03:56:12.535Z,86049.20
2022-12-05T03:58:55.593Z,86046.60
2022-12-05T04:01:28.654Z,86045.80
2022-12-05T04:04:09.575Z,86054.20
2022-12-05T04:06:44.726Z,86043.20
2022-12-05T04:10:03.529Z,86042.60
2022-12-05T04:12:35.775Z,86044.60
2022-12-05T04:15:16.224Z,86042.60
2022-12-05T04:17:59.502Z,86046.40
2022-12-05T04:20:57.438Z,86036.00
2022-12-05T04:23:28.236Z,86036.20
2022-12-05T04:26:17.675Z,86035.40
2022-12-05T04:29:02.923Z,86030.20
2022-12-05T04:31:44.524Z,86032.80
2022-12-05T04:34:18.360Z,86030.80
2022-12-05T04:37:13.846Z,86019.60
2022-12-05T04:40:04.860Z,86017.40
2022-12-05T04:42:38.431Z,86011.60
2022-12-05T04:45:13.285Z,86007.40
2022-12-05T04:47:51.005Z,86005.40
2022-12-05T04:50:22.204Z,86005.80
2022-12-05T04:52:56.283Z,86008.20
2022-12-05T04:55:29.123Z,86004.40
2022-12-05T04:58:13.562Z,86006.20
2022-12-05T05:01:08.915Z,85998.20
2022-12-05T05:03:59.185Z,86005.60
2022-12-05T05:06:29.490Z,86005.80
2022-12-05T05:09:02.880Z,86005.40
2022-12-05T05:11:36.998Z,86003.00
2022-12-05T05:14:07.017Z,86007.60
2022-12-05T05:16:42.983Z,86009.20
2022-12-05T05:19:14.013Z,86008.00
2022-12-05T05:21:44.335Z,86004.40
2022-12-05T05:24:14.178Z,85998.20
2022-12-05T05:26:45.924Z,86010.40
2022-12-05T05:29:16.400Z,86010.20
2022-12-05T05:31:46.113Z,86001.20
2022-12-05T05:34:17.271Z,86004.00
2022-12-05T05:36:46.178Z,86008.40
2022-12-05T05:39:17.674Z,86009.40
2022-12-05T05:41:46.807Z,86002.00
2022-12-05T05:44:15.869Z,86007.00
2022-12-05T05:46:45.080Z,86007.40
2022-12-05T05:49:16.975Z,86007.00
2022-12-05T05:51:46.086Z,86004.80
2022-12-05T05:54:15.337Z,85998.40
2022-12-05T05:56:44.283Z,86000.20
2022-12-05T05:59:13.223Z,85998.40
2022-12-05T06:01:42.401Z,86000.20
2022-12-05T06:04:11.663Z,86005.20
2022-12-05T06:06:42.226Z,85991.40
2022-12-05T06:09:11.298Z,85977.00
2022-12-05T06:11:40.475Z,85980.40
2022-12-05T06:14:10.170Z,85982.00
2022-12-05T06:16:39.260Z,85990.40
2022-12-05T06:19:08.385Z,85979.60
2022-12-05T06:21:37.749Z,85963.80
2022-12-05T06:24:07.206Z,85968.00
2022-12-05T06:26:36.067Z,85962.00
2022-12-05T06:29:05.239Z,85965.00
2022-12-05T06:31:35.007Z,85962.20
2022-12-05T06:34:06.199Z,85963.20
2022-12-05T06:36:35.349Z,85971.00
2022-12-05T06:39:04.539Z,85966.00
2022-12-05T06:41:34.795Z,85957.40
2022-12-05T06:44:03.913Z,85956.80
2022-12-05T06:46:32.840Z,85956.40
2022-12-05T06:49:01.987Z,85955.00
2022-12-05T06:51:30.977Z,85956.40
2022-12-05T06:54:00.086Z,85952.60
2022-12-05T06:56:29.918Z,85961.60
2022-12-05T06:58:59.071Z,85955.20
2022-12-05T07:01:41.941Z,85958.80
2022-12-05T07:04:27.363Z,85964.20
2022-12-05T07:06:57.779Z,85949.40
2022-12-05T07:09:46.889Z,85947.40
2022-12-05T07:12:20.623Z,85954.80
2022-12-05T07:14:50.268Z,85953.80
2022-12-05T07:17:22.054Z,85952.20
2022-12-05T07:19:52.554Z,85953.60
2022-12-05T07:22:24.258Z,85955.20
2022-12-05T07:24:54.292Z,85951.80
2022-12-05T07:27:27.236Z,85948.40
2022-12-05T07:29:58.075Z,85955.60
2022-12-05T07:32:27.518Z,85948.60
2022-12-05T07:34:56.456Z,85944.40
2022-12-05T07:37:25.802Z,85943.20
2022-12-05T07:39:55.489Z,85942.60
2022-12-05T07:42:24.665Z,85947.00
2022-12-05T07:44:53.881Z,85935.00
2022-12-05T07:47:23.041Z,85937.00
2022-12-05T07:49:52.051Z,85937.40
2022-12-05T07:52:21.212Z,85928.00
2022-12-05T07:54:50.327Z,85915.40
2022-12-05T07:57:19.247Z,85919.40
2022-12-05T07:59:48.270Z,85925.20
2022-12-05T08:02:17.565Z,85919.40
2022-12-05T08:04:46.769Z,85916.80
2022-12-05T08:07:16.177Z,85912.80
2022-12-05T08:09:45.402Z,85904.00
2022-12-05T08:12:14.373Z,85895.80
2022-12-05T08:14:43.352Z,85896.20
2022-12-05T08:17:12.469Z,85896.60
2022-12-05T08:19:41.659Z,85892.60
2022-12-05T08:22:10.870Z,85889.40
2022-12-05T08:24:40.229Z,85886.80
2022-12-05T08:27:09.236Z,85882.40
2022-12-05T08:29:38.413Z,85886.20
2022-12-05T08:32:07.540Z,85880.80
2022-12-05T08:34:36.663Z,85879.00
2022-12-05T08:37:05.846Z,85870.80
2022-12-05T08:39:38.474Z,85874.40
2022-12-05T08:42:08.384Z,85876.60
2022-12-05T08:44:37.474Z,85870.20
2022-12-05T08:47:06.402Z,85870.80
2022-12-05T08:49:35.485Z,85869.60
2022-12-05T08:52:04.550Z,85862.80
2022-12-05T08:54:33.469Z,85858.00
2022-12-05T08:57:02.573Z,85858.80
2022-12-05T08:59:31.999Z,85851.80
2022-12-05T09:02:01.109Z,85848.20
2022-12-05T09:04:30.229Z,85849.60
2022-12-05T09:06:59.228Z,85852.20
2022-12-05T09:09:28.178Z,85854.80
2022-12-05T09:11:58.830Z,85855.20
2022-12-05T09:14:33.746Z,85850.40
2022-12-05T09:17:03.021Z,85848.80
2022-12-05T09:19:32.334Z,85840.20
2022-12-05T09:22:01.461Z,85841.60
2022-12-05T09:24:30.435Z,85839.20
2022-12-05T09:26:59.749Z,85842.80
2022-12-05T09:29:30.580Z,85840.40
2022-12-05T09:31:59.653Z,85837.80
2022-12-05T09:34:28.795Z,85831.20
2022-12-05T09:37:22.901Z,85832.80
2022-12-05T09:39:48.065Z,85828.00
2022-12-05T09:42:32.528Z,85827.20
2022-12-05T09:45:25.366Z,85833.80
2022-12-05T09:48:07.933Z,85825.80
2022-12-05T09:50:55.834Z,85822.20
2022-12-05T09:53:29.014Z,85820.00
2022-12-05T09:56:14.903Z,85819.00
2022-12-05T09:58:57.351Z,85809.40
2022-12-05T10:02:04.935Z,85811.60
2022-12-05T10:04:36.800Z,85809.80
2022-12-05T10:07:36.601Z,85803.60
2022-12-05T10:10:48.295Z,85801.20
2022-12-05T10:14:15.514Z,85798.00
2022-12-05T10:16:56.333Z,85798.00
2022-12-05T10:19:36.045Z,85796.00
2022-12-05T10:22:35.303Z,85788.60
2022-12-05T10:25:07.905Z,85790.60
2022-12-05T10:27:49.224Z,85785.40
2022-12-05T10:30:22.799Z,85779.20
2022-12-05T10:33:12.943Z,85774.00
2022-12-05T10:35:43.773Z,85771.60
2022-12-05T10:38:34.274Z,85764.40
2022-12-05T10:41:11.842Z,85760.60
2022-12-05T10:43:45.178Z,85759.80
2022-12-05T10:46:17.648Z,85760.40
2022-12-05T10:48:47.937Z,85748.00
2022-12-05T10:51:34.021Z,85736.00
2022-12-05T10:54:22.061Z,85729.60
2022-12-05T10:56:54.382Z,85724.80
2022-12-05T10:59:43.791Z,85714.20
2022-12-05T11:02:35.166Z,85708.40
2022-12-05T11:05:05.392Z,85705.60
2022-12-05T11:08:00.893Z,85695.80
2022-12-05T11:10:38.930Z,85699.40
2022-12-05T11:13:24.899Z,85686.40
2022-12-05T11:15:55.749Z,85680.00
2022-12-05T11:18:35.424Z,85674.20
2022-12-05T11:21:17.204Z,85668.60
2022-12-05T11:23:46.238Z,85664.20
2022-12-05T11:26:38.803Z,85663.80
2022-12-05T11:29:39.224Z,85663.80
2022-12-05T11:32:22.555Z,85668.00
2022-12-05T11:35:14.242Z,85670.60
2022-12-05T11:38:05.742Z,85673.00
2022-12-05T11:41:05.619Z,85665.40
2022-12-05T11:44:04.447Z,85665.60
2022-12-05T11:47:03.199Z,85663.60
2022-12-05T11:50:17.721Z,85654.40
2022-12-05T11:53:16.541Z,85655.00
2022-12-05T11:56:27.444Z,85655.20
2022-12-05T11:59:26.960Z,85656.80
2022-12-05T12:02:26.641Z,85650.20
2022-12-05T12:05:22.483Z,85643.80
2022-12-05T12:08:36.594Z,85643.80
2022-12-05T12:11:44.225Z,85643.40
2022-12-05T12:14:45.439Z,85626.40
2022-12-05T12:18:00.768Z,85622.00
2022-12-05T12:20:55.037Z,85625.00
2022-12-05T12:23:40.886Z,85621.20
2022-12-05T12:26:46.847Z,85618.20
2022-12-05T12:29:45.136Z,85618.00
2022-12-05T12:32:22.483Z,85613.40
2022-12-05T12:35:30.170Z,85610.80
2022-12-05T12:39:00.040Z,85602.60
2022-12-05T12:41:37.620Z,85603.00
2022-12-05T12:44:37.597Z,85599.40
2022-12-05T12:47:25.063Z,85594.20
2022-12-05T12:50:27.032Z,85589.40
2022-12-05T12:53:31.574Z,85579.80
2022-12-05T12:56:05.937Z,85573.60
2022-12-05T12:58:46.677Z,85578.00
2022-12-05T13:01:47.333Z,85565.80
2022-12-05T13:04:41.716Z,85565.80
2022-12-05T13:07:34.939Z,85565.00
2022-12-05T13:10:35.813Z,85555.80
2022-12-05T13:13:07.445Z,85548.80
2022-12-05T13:16:08.732Z,85546.20
2022-12-05T13:18:38.497Z,85542.60
2022-12-05T13:21:12.062Z,85547.60
2022-12-05T13:23:56.964Z,85540.80
2022-12-05T13:26:26.365Z,85544.00
2022-12-05T13:29:00.987Z,85536.60
2022-12-05T13:31:45.175Z,85530.80
2022-12-05T13:34:32.194Z,85532.40
2022-12-05T13:37:30.404Z,85531.60
2022-12-05T13:40:19.034Z,85529.60
2022-12-05T13:42:48.336Z,85524.80
2022-12-05T13:45:22.179Z,85520.60
2022-12-05T13:48:02.817Z,85518.20
2022-12-05T13:50:59.087Z,85515.00
2022-12-05T13:53:38.885Z,85507.40
2022-12-05T13:56:46.951Z,85506.60
2022-12-05T14:00:11.170Z,85500.80
2022-12-05T14:02:49.691Z,85500.60
2022-12-05T14:05:26.746Z,85504.20
2022-12-05T14:08:03.408Z,85501.80
2022-12-05T14:10:33.039Z,85493.20
2022-12-05T14:13:23.531Z,85496.20
2022-12-05T14:15:55.714Z,85490.40
2022-12-05T14:18:50.381Z,85497.00
2022-12-05T14:22:26.679Z,85491.20
2022-12-05T14:25:23.907Z,85482.00
2022-12-05T14:28:28.961Z,85474.00
2022-12-05T14:31:25.157Z,85471.00
2022-12-05T14:34:30.637Z,85464.80
2022-12-05T14:37:17.136Z,85463.40
2022-12-05T14:39:53.927Z,85456.20
2022-12-05T14:42:53.608Z,85448.80
2022-12-05T14:45:49.789Z,85444.80
2022-12-05T14:48:18.881Z,85435.40
2022-12-05T14:50:53.454Z,85437.00
2022-12-05T14:53:33.835Z,85422.20
2022-12-05T14:56:02.878Z,85423.60
2022-12-05T14:58:57.889Z,85414.80
2022-12-05T15:01:57.460Z,85411.40
2022-12-05T15:04:42.293Z,85406.20
2022-12-05T15:07:14.069Z,85402.00
2022-12-05T15:10:16.876Z,85398.00
2022-12-05T15:13:12.704Z,85398.20
2022-12-05T15:15:41.988Z,85395.40
2022-12-05T15:18:22.364Z,85390.80
2022-12-05T15:21:19.795Z,85398.40
2022-12-05T15:23:57.252Z,85396.20
2022-12-05T15:26:49.144Z,85391.60
2022-12-05T15:29:26.996Z,85398.20
2022-12-05T15:32:18.741Z,85391.00
2022-12-05T15:35:07.501Z,85387.20
2022-12-05T15:37:51.214Z,85388.00
2022-12-05T15:40:23.585Z,85389.00
2022-12-05T15:42:58.626Z,85392.80
2022-12-05T15:45:31.335Z,85386.20
2022-12-05T15:48:09.056Z,85386.20
2022-12-05T15:50:42.879Z,85393.00
2022-12-05T15:53:49.639Z,85389.60
2022-12-05T15:57:05.720Z,85384.20
2022-12-05T15:59:50.440Z,85382.20
2022-12-05T16:02:38.737Z,85384.80
2022-12-05T16:05:26.218Z,85379.00
2022-12-05T16:07:56.106Z,85374.60
2022-12-05T16:10:29.708Z,85372.20
2022-12-05T16:13:08.250Z,85369.40
2022-12-05T16:15:37.512Z,85365.20
2022-12-05T16:18:08.177Z,85365.80
2022-12-05T16:20:39.072Z,85362.40
2022-12-05T16:23:31.895Z,85361.80
2022-12-05T16:26:22.512Z,85360.20
2022-12-05T16:29:03.227Z,85354.20
2022-12-05T16:31:35.326Z,85351.60
2022-12-05T16:34:16.339Z,85345.00
2022-12-05T16:36:54.587Z,85345.00
2022-12-05T16:39:25.440Z,85331.60
2022-12-05T16:41:55.514Z,85325.00
2022-12-05T16:44:32.617Z,85322.20
2022-12-05T16:47:01.929Z,85322.20
2022-12-05T16:49:44.314Z,85323.00
2022-12-05T16:52:17.792Z,85321.20
2022-12-05T16:54:51.725Z,85328.20
2022-12-05T16:57:21.621Z,85325.40
2022-12-05T16:59:51.362Z,85319.80
2022-12-05T17:02:21.726Z,85312.80
2022-12-05T17:04:50.841Z,85316.40
2022-12-05T17:07:19.723Z,85322.00
2022-12-05T17:09:49.601Z,85324.40
2022-12-05T17:12:26.667Z,85316.80
2022-12-05T17:14:55.853Z,85319.80
2022-12-05T17:17:25.294Z,85326.60
2022-12-05T17:19:55.573Z,85320.60
2022-12-05T17:22:25.016Z,85317.40
2022-12-05T17:24:53.998Z,85315.80
2022-12-05T17:27:23.149Z,85314.20
2022-12-05T17:29:52.196Z,85305.00
2022-12-05T17:32:21.274Z,85293.20
2022-12-05T17:34:50.581Z,85291.80
2022-12-05T17:37:19.832Z,85289.40
2022-12-05T17:39:48.899Z,85292.00
2022-12-05T17:42:18.072Z,85287.00
2022-12-05T17:44:47.628Z,85288.80
2022-12-05T17:47:16.784Z,85287.40
2022-12-05T17:49:46.522Z,85283.80
2022-12-05T17:52:23.041Z,85269.20
2022-12-05T17:54:52.227Z,85242.80
2022-12-05T17:57:21.831Z,85236.40
2022-12-05T17:59:51.723Z,85228.00
2022-12-05T18:02:21.108Z,85237.40
2022-12-05T18:04:50.254Z,85247.80
2022-12-05T18:07:19.277Z,85254.00
2022-12-05T18:09:48.472Z,85250.80
2022-12-05T18:12:17.747Z,85255.00
2022-12-05T18:14:47.554Z,85258.80
2022-12-05T18:17:16.905Z,85268.60
2022-12-05T18:19:45.965Z,85270.00
2022-12-05T18:22:17.191Z,85268.20
2022-12-05T18:24:49.427Z,85279.20
2022-12-05T18:27:18.688Z,85277.60
2022-12-05T18:29:51.103Z,85284.20
2022-12-05T18:32:21.523Z,85284.00
2022-12-05T18:34:50.595Z,85286.80
2022-12-05T18:37:20.473Z,85287.00
2022-12-05T18:39:49.543Z,85290.20
2022-12-05T18:42:18.609Z,85296.80
2022-12-05T18:44:50.089Z,85296.60
2022-12-05T18:47:19.495Z,85299.20
2022-12-05T18:49:48.549Z,85291.00
2022-12-05T18:52:17.495Z,85289.20
2022-12-05T18:54:57.665Z,85295.60
2022-12-05T18:57:37.444Z,85293.40
2022-12-05T19:00:07.092Z,85288.40
2022-12-05T19:02:36.281Z,85287.40
2022-12-05T19:05:05.987Z,85285.40
2022-12-05T19:07:35.186Z,85279.40
2022-12-05T19:10:04.520Z,85279.40
2022-12-05T19:12:33.622Z,85278.80
2022-12-05T19:15:02.773Z,85281.40
2022-12-05T19:17:32.363Z,85277.20
2022-12-05T19:20:02.208Z,85274.20
2022-12-05T19:22:31.620Z,85267.40
2022-12-05T19:25:01.016Z,85274.60
2022-12-05T19:27:30.736Z,85270.00
2022-12-05T19:30:00.515Z,85265.80
2022-12-05T19:32:36.816Z,85269.20
2022-12-05T19:35:10.008Z,85261.80
2022-12-05T19:37:39.062Z,85268.20
2022-12-05T19:40:08.936Z,85262.40
2022-12-05T19:42:37.831Z,85264.60
2022-12-05T19:45:10.362Z,85257.40
2022-12-05T19:47:41.410Z,85247.60
2022-12-05T19:50:10.898Z,85250.00
2022-12-05T19:52:39.889Z,85252.20
2022-12-05T19:55:09.389Z,85254.40
2022-12-05T19:57:38.872Z,85250.20
2022-12-05T20:00:10.997Z,85249.20
2022-12-05T20:02:40.445Z,85243.00
2022-12-05T20:05:09.958Z,85237.80
2022-12-05T20:07:39.032Z,85244.40
2022-12-05T20:10:08.736Z,85243.20
2022-12-05T20:12:37.890Z,85239.40
2022-12-05T20:15:07.576Z,85242.40
2022-12-05T20:17:36.643Z,85239.60
2022-12-05T20:20:07.255Z,85233.60
2022-12-05T20:22:36.245Z,85224.00
2022-12-05T20:25:06.310Z,85219.00
2022-12-05T20:27:36.572Z,85212.20
2022-12-05T20:30:06.385Z,85213.00
2022-12-05T20:32:36.706Z,85200.00
2022-12-05T20:35:05.961Z,85213.20
2022-12-05T20:37:35.737Z,85205.40
2022-12-05T20:40:06.045Z,85211.00
2022-12-05T20:42:35.042Z,85211.20
2022-12-05T20:45:04.516Z,85208.60
2022-12-05T20:47:33.555Z,85198.00
2022-12-05T20:50:02.655Z,85205.60
2022-12-05T20:52:32.879Z,85198.40
2022-12-05T20:55:02.480Z,85210.00
2022-12-05T20:57:34.639Z,85206.20
2022-12-05T21:00:04.193Z,85204.80
2022-12-05T21:02:33.226Z,85202.40
2022-12-05T21:05:02.499Z,85205.20
2022-12-05T21:07:31.607Z,85201.60
2022-12-05T21:10:06.314Z,85199.60
2022-12-05T21:12:37.176Z,85201.80
2022-12-05T21:15:07.280Z,85202.20
2022-12-05T21:17:36.450Z,85196.40
2022-12-05T21:20:07.091Z,85193.00
2022-12-05T21:22:35.976Z,85194.60
2022-12-05T21:25:05.200Z,85195.00
2022-12-05T21:27:34.626Z,85194.40
2022-12-05T21:30:03.581Z,85187.40
2022-12-05T21:32:32.479Z,85178.60
2022-12-05T21:35:01.793Z,85178.20
2022-12-05T21:37:30.995Z,85181.80
2022-12-05T21:40:00.464Z,85183.20
2022-12-05T21:42:29.817Z,85178.20
2022-12-05T21:44:59.196Z,85183.80
2022-12-05T21:47:30.378Z,85183.60
2022-12-05T21:50:00.592Z,85187.40
2022-12-05T21:52:29.878Z,85180.40
2022-12-05T21:54:58.935Z,85176.80
2022-12-05T21:57:33.228Z,85174.60
2022-12-05T22:00:02.175Z,85177.60
2022-12-05T22:02:31.191Z,85178.80
2022-12-05T22:05:00.149Z,85173.00
2022-12-05T22:07:29.552Z,85172.80
2022-12-05T22:09:59.366Z,85176.20
2022-12-05T22:12:28.845Z,85169.40
2022-12-05T22:14:57.954Z,85170.60
2022-12-05T22:17:27.012Z,85167.40
2022-12-05T22:19:56.278Z,85162.20
2022-12-05T22:22:25.755Z,85161.20
2022-12-05T22:24:54.907Z,85161.80
2022-12-05T22:27:24.255Z,85158.40
2022-12-05T22:29:53.398Z,85157.80
2022-12-05T22:32:22.384Z,85152.60
2022-12-05T22:34:52.241Z,85156.80
2022-12-05T22:37:21.300Z,85160.80
2022-12-05T22:39:50.297Z,85164.00
2022-12-05T22:42:19.969Z,85161.40
2022-12-05T22:44:48.975Z,85166.80
2022-12-05T22:47:18.101Z,85165.60
2022-12-05T22:49:47.170Z,85169.40
2022-12-05T22:52:16.463Z,85168.20
2022-12-05T22:54:45.516Z,85171.00
2022-12-05T22:57:15.543Z,85182.80
2022-12-05T22:59:44.540Z,85176.80
2022-12-05T23:02:16.585Z,85181.60
2022-12-05T23:04:45.706Z,85188.20
2022-12-05T23:07:14.725Z,85177.00
2022-12-05T23:09:43.915Z,85187.40
2022-12-05T23:12:13.840Z,85191.20
2022-12-05T23:14:42.971Z,85190.20
2022-12-05T23:17:12.082Z,85194.00
2022-12-05T23:19:41.407Z,85190.40
2022-12-05T23:22:10.564Z,85193.80
2022-12-05T23:24:39.667Z,85187.40
2022-12-05T23:27:08.611Z,85187.40
2022-12-05T23:29:37.606Z,85190.80
2022-12-05T23:32:07.023Z,85186.20
2022-12-05T23:34:36.057Z,85193.40
2022-12-05T23:37:05.844Z,85198.60
2022-12-05T23:39:34.849Z,85205.60
2022-12-05T23:42:04.160Z,85206.00
2022-12-05T23:44:33.529Z,85204.20
2022-12-05T23:47:02.809Z,85211.20
2022-12-05T23:49:31.938Z,85213.80
2022-12-05T23:52:00.891Z,85211.60
2022-12-05T23:54:30.112Z,85215.00
2022-12-05T23:57:01.046Z,85208.80
2022-12-05T23:59:30.046Z,85212.80
